Time;durP1;ratioP1;P1;durP2;ratioP2;P2;SDS_P1;SDS_P2;PMS_P1;PMS_P2;Temp;Humidity;BMP_temperature;BMP_pressure;BME280_temperature;BME280_humidity;BME280_pressure;Samples;Min_cycle;Max_cycle;Signal;HPM_P1;HPM_P2
2021/08/11 00:00:23;;;;;;;5.97;4.63;;;;;;;24.91;45.50;95699.22;4970123;28;20397;-71
2021/08/11 00:02:48;;;;;;;5.47;4.93;;;;;;;24.90;45.45;95700.38;4969661;28;20039;-71
2021/08/11 00:05:14;;;;;;;6.28;4.50;;;;;;;24.86;45.66;95707.75;4970590;28;20113;-71
2021/08/11 00:07:39;;;;;;;5.30;4.80;;;;;;;24.81;45.92;95717.03;4988637;28;20089;-71
2021/08/11 00:10:06;;;;;;;6.07;4.93;;;;;;;24.63;46.31;95708.81;4989338;28;20022;-71
2021/08/11 00:12:32;;;;;;;6.60;5.15;;;;;;;24.64;46.33;95717.75;4991351;28;20064;-71
2021/08/11 00:14:57;;;;;;;8.80;4.32;;;;;;;24.72;46.20;95724.78;4989372;28;20593;-70
2021/08/11 00:17:23;;;;;;;5.55;4.43;;;;;;;24.68;46.06;95724.00;4988611;28;20046;-70
2021/08/11 00:19:49;;;;;;;8.25;5.07;;;;;;;24.53;46.01;95706.81;4967523;28;20045;-71
2021/08/11 00:22:15;;;;;;;6.53;4.47;;;;;;;24.56;46.28;95729.72;4989133;28;20089;-71
2021/08/11 00:24:40;;;;;;;5.07;4.32;;;;;;;24.57;46.61;95742.19;4973992;28;20453;-70
2021/08/11 00:27:05;;;;;;;6.03;4.57;;;;;;;24.64;46.29;95758.53;4988680;28;20452;-70
2021/08/11 00:29:31;;;;;;;7.25;4.43;;;;;;;24.59;46.20;95728.97;4989076;28;20126;-70
2021/08/11 00:31:56;;;;;;;5.80;4.05;;;;;;;24.99;45.88;95766.13;4988931;28;20042;-70
2021/08/11 00:34:22;;;;;;;6.10;4.30;;;;;;;25.12;45.62;95752.97;4978740;28;20122;-71
2021/08/11 00:36:47;;;;;;;5.20;3.95;;;;;;;25.13;45.38;95730.84;4974918;28;20019;-71
2021/08/11 00:39:13;;;;;;;5.65;4.22;;;;;;;25.09;45.15;95724.59;4973802;28;20039;-71
2021/08/11 00:41:44;;;;;;;5.68;4.45;;;;;;;24.95;45.02;95718.28;4972506;28;20488;-70
2021/08/11 00:44:11;;;;;;;5.15;4.18;;;;;;;24.85;45.35;95708.91;4973396;28;20488;-71
2021/08/11 00:46:40;;;;;;;4.38;4.03;;;;;;;24.76;45.01;95711.19;4972763;28;20133;-70
2021/08/11 00:49:07;;;;;;;8.65;4.53;;;;;;;24.71;45.30;95709.59;4972396;28;20408;-71
2021/08/11 00:51:32;;;;;;;6.72;4.70;;;;;;;24.72;45.69;95699.50;4973622;28;20031;-70
2021/08/11 00:53:59;;;;;;;5.13;3.97;;;;;;;24.75;45.71;95702.25;4972886;28;20109;-71
2021/08/11 00:56:25;;;;;;;4.95;4.47;;;;;;;24.81;45.72;95722.47;4972637;28;20549;-71
2021/08/11 00:58:52;;;;;;;5.82;4.70;;;;;;;24.86;45.66;95724.06;4973205;28;20098;-71
2021/08/11 01:01:18;;;;;;;5.55;4.28;;;;;;;24.80;45.75;95720.94;4973176;28;20058;-70
2021/08/11 01:03:45;;;;;;;6.53;4.65;;;;;;;24.88;45.47;95735.38;4974304;28;20062;-70
2021/08/11 01:06:10;;;;;;;4.30;3.90;;;;;;;24.93;45.46;95712.41;4980334;28;20038;-71
2021/08/11 01:08:37;;;;;;;5.80;3.88;;;;;;;25.25;45.28;95739.81;4956054;28;20130;-71
2021/08/11 01:11:04;;;;;;;4.82;4.38;;;;;;;25.20;44.70;95719.19;4973189;28;20063;-71
2021/08/11 01:13:30;;;;;;;5.65;4.68;;;;;;;25.18;44.58;95724.22;4955485;28;20038;-70
2021/08/11 01:15:56;;;;;;;5.28;4.60;;;;;;;25.07;45.13;95713.28;4956851;28;20045;-70
2021/08/11 01:18:21;;;;;;;4.65;4.00;;;;;;;25.02;45.07;95729.19;4954983;28;20576;-71
2021/08/11 01:20:56;;;;;;;6.25;4.20;;;;;;;25.13;44.90;95749.88;4971375;28;20049;-71
2021/08/11 01:23:26;;;;;;;4.00;3.65;;;;;;;25.10;44.70;95758.03;4972758;28;20047;-71
2021/08/11 01:26:01;;;;;;;6.25;4.00;;;;;;;25.06;45.12;95746.31;4971189;28;20493;-71
2021/08/11 01:29:08;;;;;;;5.07;4.43;;;;;;;25.11;45.02;95760.38;4972923;28;20121;-70
2021/08/11 01:31:57;;;;;;;4.78;4.30;;;;;;;25.11;44.96;95748.69;4931926;29;20078;-70
2021/08/11 01:34:34;;;;;;;5.47;4.40;;;;;;;25.01;45.09;95735.78;4930719;29;20066;-71
2021/08/11 01:37:03;;;;;;;4.85;4.18;;;;;;;24.96;45.06;95728.00;4962525;28;20121;-70
2021/08/11 01:39:35;;;;;;;4.85;4.32;;;;;;;24.93;45.33;95745.06;4972443;28;20536;-71
2021/08/11 01:42:16;;;;;;;5.10;4.70;;;;;;;24.86;45.53;95741.16;4971275;28;20043;-70
2021/08/11 01:44:50;;;;;;;5.22;4.82;;;;;;;24.80;45.58;95733.75;4971467;28;20564;-71
2021/08/11 01:47:19;;;;;;;5.43;4.72;;;;;;;24.94;45.33;95750.16;4971850;28;20253;-70
2021/08/11 01:49:47;;;;;;;6.20;4.47;;;;;;;24.85;45.33;95739.63;4976210;28;20489;-71
2021/08/11 01:52:15;;;;;;;5.00;4.45;;;;;;;24.79;45.54;95741.13;4990872;28;20097;-71
2021/08/11 01:54:43;;;;;;;4.80;4.28;;;;;;;24.68;45.70;95736.81;4976312;28;20022;-70
2021/08/11 01:57:10;;;;;;;4.97;4.50;;;;;;;24.61;45.60;95742.97;4991051;28;20437;-71
2021/08/11 01:59:38;;;;;;;5.35;4.80;;;;;;;24.50;46.12;95740.19;4973647;28;20041;-71
2021/08/11 02:02:04;;;;;;;4.35;4.03;;;;;;;24.40;46.17;95731.97;4991313;28;20133;-71
2021/08/11 02:04:30;;;;;;;5.03;4.50;;;;;;;24.14;46.35;95711.94;4980271;28;20570;-72
2021/08/11 02:06:57;;;;;;;4.88;4.47;;;;;;;24.29;46.55;95738.09;4971865;28;20115;-70
2021/08/11 02:09:22;;;;;;;5.50;5.00;;;;;;;24.15;46.71;95727.09;4971529;28;20073;-70
2021/08/11 02:11:48;;;;;;;4.97;4.18;;;;;;;24.06;46.91;95721.22;4970845;28;20113;-70
2021/08/11 02:14:14;;;;;;;6.82;5.00;;;;;;;23.96;47.20;95711.81;4971915;28;20049;-70
2021/08/11 02:16:41;;;;;;;7.32;5.10;;;;;;;24.02;47.02;95734.00;4971259;28;20041;-71
2021/08/11 02:19:10;;;;;;;8.05;5.38;;;;;;;23.98;47.32;95722.31;4970386;28;20023;-71
2021/08/11 02:21:37;;;;;;;5.28;4.78;;;;;;;23.91;47.43;95727.69;4967268;28;20037;-71
2021/08/11 02:24:04;;;;;;;5.47;4.97;;;;;;;23.72;47.31;95705.03;4973594;28;20129;-70
2021/08/11 02:26:38;;;;;;;5.82;5.20;;;;;;;23.76;47.36;95721.34;4990549;28;20034;-70
2021/08/11 02:29:35;;;;;;;5.75;5.25;;;;;;;23.79;47.82;95737.66;4991046;28;20133;-70
2021/08/11 02:32:34;;;;;;;5.18;4.55;;;;;;;23.96;48.04;95751.81;4990871;28;20104;-71
2021/08/11 02:35:02;;;;;;;5.10;4.70;;;;;;;24.08;48.06;95737.91;4966184;28;20125;-71
2021/08/11 02:37:39;;;;;;;5.05;4.43;;;;;;;24.11;47.66;95723.59;4979490;28;20098;-71
2021/08/11 02:40:39;;;;;;;6.78;4.03;;;;;;;24.43;47.38;95739.38;4971360;28;20066;-67
2021/08/11 02:43:15;;;;;;;4.65;4.30;;;;;;;24.52;46.71;95737.09;4965638;28;20063;-70
2021/08/11 02:45:41;;;;;;;6.57;4.00;;;;;;;24.40;46.81;95721.09;4953349;28;20493;-71
2021/08/11 02:48:12;;;;;;;6.22;4.40;;;;;;;24.54;46.73;95732.06;4970739;28;20137;-70
2021/08/11 02:50:40;;;;;;;5.32;4.47;;;;;;;24.66;46.58;95728.22;4970295;28;20049;-71
2021/08/11 02:53:06;;;;;;;5.03;4.60;;;;;;;24.74;46.37;95736.06;4971393;28;20122;-71
2021/08/11 02:55:36;;;;;;;5.05;4.40;;;;;;;24.74;46.06;95727.91;4970543;28;20035;-70
2021/08/11 02:58:02;;;;;;;5.65;4.90;;;;;;;24.69;46.02;95735.66;4972831;28;20026;-70
2021/08/11 03:00:28;;;;;;;4.97;4.45;;;;;;;24.66;45.90;95734.44;4970851;28;20047;-70
2021/08/11 03:02:53;;;;;;;5.30;4.75;;;;;;;24.64;46.11;95737.56;4970920;28;20051;-70
2021/08/11 03:05:19;;;;;;;8.60;5.05;;;;;;;24.57;46.22;95734.81;4966975;28;20124;-70
2021/08/11 03:07:45;;;;;;;4.50;4.10;;;;;;;24.64;45.96;95734.06;4971853;28;20046;-70
2021/08/11 03:10:11;;;;;;;6.93;4.75;;;;;;;24.73;46.06;95731.78;4972878;28;20133;-71
2021/08/11 03:12:37;;;;;;;4.93;4.47;;;;;;;24.80;46.00;95739.97;4992017;28;20397;-71
2021/08/11 03:15:05;;;;;;;5.00;4.60;;;;;;;24.84;45.72;95729.13;4990099;28;20042;-71
2021/08/11 03:17:31;;;;;;;5.60;4.18;;;;;;;24.83;45.72;95738.44;4971913;28;20514;-70
2021/08/11 03:19:56;;;;;;;5.93;4.55;;;;;;;24.67;46.00;95718.91;4977760;28;20043;-71
2021/08/11 03:22:22;;;;;;;5.57;4.38;;;;;;;24.65;46.03;95730.19;4964067;28;20495;-70
2021/08/11 03:24:48;;;;;;;5.55;5.03;;;;;;;24.46;46.28;95712.19;4991727;28;20032;-70
2021/08/11 03:27:13;;;;;;;4.88;4.35;;;;;;;24.49;46.43;95729.69;4971889;28;20034;-70
2021/08/11 03:29:38;;;;;;;4.82;3.90;;;;;;;24.55;46.60;95733.63;4989662;28;20035;-70
2021/08/11 03:32:04;;;;;;;5.13;4.63;;;;;;;24.38;46.31;95703.22;4989507;28;20066;-70
2021/08/11 03:34:29;;;;;;;5.10;4.55;;;;;;;24.38;46.44;95708.66;4964216;28;20050;-70
2021/08/11 03:36:55;;;;;;;6.03;5.00;;;;;;;24.43;46.69;95718.41;4971413;28;20077;-70
2021/08/11 03:39:21;;;;;;;7.20;5.03;;;;;;;24.36;46.78;95718.34;4952836;28;20405;-70
2021/08/11 03:41:46;;;;;;;5.60;4.90;;;;;;;24.08;46.86;95697.94;4952724;28;20081;-70
2021/08/11 03:44:12;;;;;;;5.20;4.70;;;;;;;23.93;46.88;95690.84;4970534;28;20101;-70
2021/08/11 03:46:37;;;;;;;5.15;4.75;;;;;;;24.05;47.42;95712.25;4969446;28;20079;-71
2021/08/11 03:49:03;;;;;;;5.10;4.60;;;;;;;24.07;47.27;95726.28;4971322;28;20031;-70
2021/08/11 03:51:28;;;;;;;6.38;4.50;;;;;;;23.98;47.52;95719.59;4969657;28;20039;-70
2021/08/11 03:53:54;;;;;;;5.40;4.88;;;;;;;24.01;47.46;95735.16;4970099;28;20130;-71
2021/08/11 03:56:20;;;;;;;5.28;4.82;;;;;;;23.94;47.82;95722.28;4969201;28;20038;-70
2021/08/11 03:58:45;;;;;;;5.40;4.90;;;;;;;23.81;47.63;95710.94;4969784;28;20126;-70
2021/08/11 04:01:11;;;;;;;6.53;5.43;;;;;;;23.83;47.80;95719.47;4968487;28;20066;-70
2021/08/11 04:03:36;;;;;;;5.65;5.15;;;;;;;23.79;47.75;95710.50;4972034;28;20109;-70
2021/08/11 04:06:02;;;;;;;7.40;5.75;;;;;;;23.84;47.63;95728.41;4968613;28;20062;-70
2021/08/11 04:08:27;;;;;;;6.65;6.05;;;;;;;23.68;48.17;95712.34;4971495;28;20371;-70
2021/08/11 04:10:53;;;;;;;7.50;5.05;;;;;;;23.68;47.85;95720.50;4973931;28;20114;-70
2021/08/11 04:13:19;;;;;;;8.10;6.15;;;;;;;23.77;48.14;95734.56;4974023;28;20019;-71
2021/08/11 04:15:48;;;;;;;6.97;6.28;;;;;;;23.72;48.20;95723.25;4975755;28;20426;-69
2021/08/11 04:18:13;;;;;;;5.70;5.20;;;;;;;23.78;48.31;95725.25;4973806;28;20078;-72
2021/08/11 04:20:39;;;;;;;7.35;4.90;;;;;;;23.89;48.28;95730.00;4972810;28;20551;-70
2021/08/11 04:23:07;;;;;;;6.78;5.63;;;;;;;23.96;48.34;95740.94;4973544;28;20554;-70
2021/08/11 04:25:36;;;;;;;6.18;5.18;;;;;;;23.90;47.71;95728.84;4971523;28;20042;-70
2021/08/11 04:28:03;;;;;;;5.80;5.03;;;;;;;23.92;47.56;95726.53;4975435;28;20026;-70
2021/08/11 04:30:28;;;;;;;8.82;5.50;;;;;;;23.99;47.50;95737.47;4973719;28;20034;-70
2021/08/11 04:32:54;;;;;;;6.30;5.03;;;;;;;24.03;47.68;95738.28;4973319;28;20516;-69
2021/08/11 04:35:19;;;;;;;5.55;5.05;;;;;;;24.25;47.81;95752.81;4971939;28;20042;-71
2021/08/11 04:37:44;;;;;;;5.63;4.95;;;;;;;24.24;47.27;95724.06;4974305;28;20029;-73
2021/08/11 04:40:11;;;;;;;6.03;4.40;;;;;;;24.30;47.36;95722.53;4992435;28;20100;-72
2021/08/11 04:42:36;;;;;;;4.50;4.10;;;;;;;24.24;47.18;95705.03;4994175;28;20026;-72
2021/08/11 04:45:02;;;;;;;5.95;4.85;;;;;;;24.22;47.21;95693.78;4992054;28;20391;-70
2021/08/11 04:47:28;;;;;;;4.63;4.20;;;;;;;24.57;46.95;95742.19;4991468;28;20035;-70
2021/08/11 04:49:53;;;;;;;6.80;4.28;;;;;;;24.71;46.60;95742.25;4984068;28;20103;-70
2021/08/11 04:52:18;;;;;;;4.82;4.07;;;;;;;24.62;46.48;95722.78;4965498;28;20364;-70
2021/08/11 04:54:44;;;;;;;4.95;4.40;;;;;;;24.78;46.34;95739.59;4957349;28;20073;-70
2021/08/11 04:57:09;;;;;;;6.60;3.85;;;;;;;24.70;46.29;95710.78;4972131;28;20081;-70
2021/08/11 04:59:35;;;;;;;4.60;3.60;;;;;;;25.06;45.99;95743.59;4972689;28;20031;-71
2021/08/11 05:02:00;;;;;;;4.97;3.85;;;;;;;25.27;45.77;95745.66;4974162;28;20111;-70
2021/08/11 05:04:26;;;;;;;5.57;4.05;;;;;;;25.25;45.30;95720.75;4969728;28;20050;-67
2021/08/11 05:06:51;;;;;;;5.00;4.13;;;;;;;25.47;45.29;95732.47;4974408;28;20110;-68
2021/08/11 05:09:17;;;;;;;4.43;3.63;;;;;;;25.59;44.86;95732.91;4971747;28;20129;-69
2021/08/11 05:11:43;;;;;;;5.47;3.28;;;;;;;25.56;44.48;95705.66;4972664;28;20078;-73
2021/08/11 05:14:09;;;;;;;6.95;4.20;;;;;;;25.65;44.09;95708.78;4971997;28;20050;-72
2021/08/11 05:16:34;;;;;;;4.15;3.72;;;;;;;25.78;44.23;95720.88;4970959;28;20426;-73
2021/08/11 05:19:00;;;;;;;4.53;4.00;;;;;;;25.77;43.88;95694.81;4973161;28;20066;-72
2021/08/11 05:21:32;;;;;;;4.35;3.95;;;;;;;26.17;43.72;95744.66;4972786;28;20504;-79
2021/08/11 05:23:58;;;;;;;4.72;3.72;;;;;;;26.18;43.60;95733.34;4973646;28;20481;-73
2021/08/11 05:26:23;;;;;;;5.18;4.68;;;;;;;26.09;43.42;95700.25;4970614;28;20041;-69
2021/08/11 05:28:49;;;;;;;5.63;4.70;;;;;;;26.21;43.13;95710.00;4972249;28;20043;-73
2021/08/11 05:31:15;;;;;;;5.43;4.10;;;;;;;26.45;43.21;95735.69;4969344;28;20029;-69
2021/08/11 05:33:40;;;;;;;5.70;3.90;;;;;;;25.96;42.98;95671.84;4974293;28;20030;-69
2021/08/11 05:36:06;;;;;;;7.47;4.00;;;;;;;25.98;43.33;95685.84;4970620;28;20043;-69
2021/08/11 05:38:32;;;;;;;9.38;4.55;;;;;;;26.01;43.52;95679.63;4971689;28;20122;-70
2021/08/11 05:40:59;;;;;;;5.60;4.00;;;;;;;26.05;43.36;95687.78;4971631;28;20066;-69
2021/08/11 05:43:25;;;;;;;4.95;3.97;;;;;;;26.12;43.19;95685.06;4969886;28;20031;-70
2021/08/11 05:45:50;;;;;;;4.05;3.75;;;;;;;26.13;43.17;95683.88;4973270;28;20026;-69
2021/08/11 05:48:15;;;;;;;3.95;3.55;;;;;;;26.53;43.08;95739.19;4971230;28;20039;-69
2021/08/11 05:50:41;;;;;;;4.72;4.00;;;;;;;26.51;43.11;95719.69;4971281;28;20047;-69
2021/08/11 05:53:06;;;;;;;5.90;4.07;;;;;;;26.84;43.14;95762.91;4971294;28;20034;-70
2021/08/11 05:55:32;;;;;;;5.72;3.92;;;;;;;26.65;43.00;95725.13;4971048;28;20485;-69
2021/08/11 05:57:57;;;;;;;5.25;4.15;;;;;;;26.48;42.86;95685.03;4973372;28;20476;-69
2021/08/11 06:00:23;;;;;;;4.72;3.88;;;;;;;27.04;42.95;95754.28;4971211;28;20043;-69
2021/08/11 06:02:48;;;;;;;8.60;3.97;;;;;;;27.12;42.62;95764.00;4969597;28;20416;-70
2021/08/11 06:05:13;;;;;;;5.72;3.85;;;;;;;26.85;42.40;95695.44;4969453;28;20122;-70
2021/08/11 06:07:39;;;;;;;4.20;3.80;;;;;;;27.27;41.61;95749.13;4970821;28;20034;-69
2021/08/11 06:10:05;;;;;;;4.93;4.13;;;;;;;27.39;41.61;95747.91;4971211;28;20022;-71
2021/08/11 06:12:31;;;;;;;5.00;3.60;;;;;;;27.39;41.82;95751.41;4971707;28;20537;-70
2021/08/11 06:14:57;;;;;;;3.78;3.45;;;;;;;27.18;41.21;95710.56;4971321;28;20035;-70
2021/08/11 06:17:22;;;;;;;3.90;3.35;;;;;;;27.36;40.76;95726.84;4971220;28;20085;-69
2021/08/11 06:19:48;;;;;;;5.38;3.67;;;;;;;27.71;40.33;95745.03;4970306;28;20039;-70
2021/08/11 06:22:14;;;;;;;4.47;3.40;;;;;;;27.86;40.69;95760.16;4970514;28;20038;-71
2021/08/11 06:24:40;;;;;;;5.65;3.67;;;;;;;27.74;40.44;95736.00;4973056;28;20157;-70
2021/08/11 06:27:05;;;;;;;4.38;3.30;;;;;;;28.07;40.41;95761.19;4970362;28;20739;-71
2021/08/11 06:29:31;;;;;;;5.15;3.25;;;;;;;28.17;40.13;95757.59;4971139;28;20512;-70
2021/08/11 06:31:57;;;;;;;4.43;3.03;;;;;;;28.26;39.98;95754.41;4969388;28;20046;-76
2021/08/11 06:34:24;;;;;;;5.60;3.15;;;;;;;28.36;39.77;95762.53;4970792;28;20504;-70
2021/08/11 06:36:50;;;;;;;4.90;3.33;;;;;;;28.35;39.00;95739.06;4971527;28;20043;-70
2021/08/11 06:39:16;;;;;;;4.35;2.72;;;;;;;28.37;38.35;95755.88;4987654;28;20034;-70
2021/08/11 06:41:41;;;;;;;6.50;3.00;;;;;;;28.42;38.58;95757.41;4972924;28;20046;-69
2021/08/11 06:44:07;;;;;;;3.30;2.88;;;;;;;28.50;38.01;95756.91;4989165;28;20069;-69
2021/08/11 06:46:32;;;;;;;4.35;2.63;;;;;;;28.52;36.97;95755.75;4972208;28;20034;-69
2021/08/11 06:48:58;;;;;;;2.83;2.50;;;;;;;28.46;36.96;95730.78;4992108;28;20113;-70
2021/08/11 06:51:23;;;;;;;3.03;2.60;;;;;;;28.64;36.91;95744.28;4973161;28;20047;-69
2021/08/11 06:53:48;;;;;;;2.97;2.33;;;;;;;28.76;36.37;95755.50;4983789;28;20527;-70
2021/08/11 06:56:14;;;;;;;2.67;2.30;;;;;;;28.60;35.65;95747.06;4989454;28;20065;-70
2021/08/11 06:58:39;;;;;;;4.50;2.20;;;;;;;28.75;35.77;95751.19;4989878;28;20504;-71
2021/08/11 07:01:05;;;;;;;3.10;2.42;;;;;;;28.87;35.64;95760.06;4990009;28;20469;-70
2021/08/11 07:03:30;;;;;;;5.25;3.05;;;;;;;28.95;35.68;95756.13;4974494;28;20030;-70
2021/08/11 07:05:56;;;;;;;4.20;2.60;;;;;;;29.01;34.89;95757.22;4966517;28;20750;-70
2021/08/11 07:08:22;;;;;;;3.72;2.60;;;;;;;29.05;34.10;95768.13;5003746;23;20540;-67
2021/08/11 07:10:48;;;;;;;3.40;3.10;;;;;;;29.08;34.33;95772.81;4969421;28;20039;-68
2021/08/11 07:13:14;;;;;;;3.22;2.47;;;;;;;29.12;34.17;95768.03;4970054;28;20472;-68
2021/08/11 07:15:40;;;;;;;4.10;2.55;;;;;;;28.83;34.47;95751.16;4971794;28;20046;-67
2021/08/11 07:18:06;;;;;;;5.93;3.17;;;;;;;29.13;34.60;95762.19;4970336;28;20066;-67
2021/08/11 07:20:32;;;;;;;5.00;3.00;;;;;;;29.14;34.94;95758.25;4969387;28;20476;-68
2021/08/11 07:22:58;;;;;;;4.75;2.80;;;;;;;29.36;34.82;95771.69;4969727;28;20143;-68
2021/08/11 07:25:27;;;;;;;3.13;2.55;;;;;;;29.43;34.42;95761.41;4969805;28;20065;-67
2021/08/11 07:27:53;;;;;;;3.28;2.40;;;;;;;29.42;33.34;95776.28;4970168;28;20121;-68
2021/08/11 07:30:19;;;;;;;4.47;2.25;;;;;;;29.38;33.56;95756.41;4968730;28;20042;-68
2021/08/11 07:32:45;;;;;;;2.40;2.15;;;;;;;29.55;33.07;95776.56;4969897;28;20472;-68
2021/08/11 07:35:12;;;;;;;3.38;2.17;;;;;;;29.64;32.66;95770.56;4967878;28;20421;-68
2021/08/11 07:37:49;;;;;;;4.03;2.45;;;;;;;29.57;32.65;95737.75;4969356;28;20057;-67
2021/08/11 07:40:15;;;;;;;3.17;2.08;;;;;;;29.66;32.00;95779.16;4968485;28;20125;-70
2021/08/11 07:42:41;;;;;;;2.70;2.35;;;;;;;29.73;32.65;95773.56;4972433;28;20110;-68
2021/08/11 07:45:09;;;;;;;2.97;2.42;;;;;;;29.84;32.18;95765.19;4969881;28;20047;-69
2021/08/11 07:47:34;;;;;;;3.80;2.30;;;;;;;29.86;32.59;95751.84;4968917;28;20031;-69
2021/08/11 07:50:00;;;;;;;2.42;2.15;;;;;;;30.14;32.18;95765.16;4969446;28;20047;-69
2021/08/11 07:52:25;;;;;;;5.45;2.70;;;;;;;29.87;32.25;95743.19;4969540;28;20054;-68
2021/08/11 07:54:50;;;;;;;4.53;2.30;;;;;;;29.88;32.16;95766.69;4969957;28;20101;-69
2021/08/11 07:57:16;;;;;;;2.15;1.92;;;;;;;30.05;31.51;95759.41;4967989;28;20046;-69
2021/08/11 07:59:41;;;;;;;3.15;2.65;;;;;;;30.07;31.70;95737.81;4969436;28;20043;-66
2021/08/11 08:02:10;;;;;;;2.85;2.08;;;;;;;30.20;31.52;95766.25;4970121;28;20051;-69
2021/08/11 08:04:36;;;;;;;2.70;2.17;;;;;;;30.28;31.54;95753.94;4969119;28;20104;-68
2021/08/11 08:07:02;;;;;;;2.40;2.20;;;;;;;30.38;31.85;95756.94;4977549;28;20062;-67
2021/08/11 08:09:27;;;;;;;3.15;2.10;;;;;;;30.49;31.58;95760.28;4988352;28;20042;-71
2021/08/11 08:11:52;;;;;;;2.38;2.20;;;;;;;29.77;32.78;95764.09;4988665;28;20050;-67
2021/08/11 08:14:18;;;;;;;2.88;2.30;;;;;;;30.28;32.26;95762.19;4987411;28;20093;-66
2021/08/11 08:16:43;;;;;;;3.35;2.45;;;;;;;30.47;32.16;95763.44;4988367;28;20088;-68
2021/08/11 08:19:09;;;;;;;2.25;1.90;;;;;;;29.91;32.35;95776.84;4987414;28;20054;-65
2021/08/11 08:21:35;;;;;;;2.20;1.92;;;;;;;30.38;31.79;95776.16;4976570;28;20633;-64
2021/08/11 08:24:00;;;;;;;4.53;2.40;;;;;;;29.13;33.56;95784.09;4967915;28;20043;-69
2021/08/11 08:26:26;;;;;;;3.78;1.85;;;;;;;29.47;33.38;95781.31;4967500;28;20093;-65
2021/08/11 08:28:51;;;;;;;2.22;2.00;;;;;;;30.07;32.68;95772.69;4969308;28;20616;-71
2021/08/11 08:31:16;;;;;;;3.05;2.05;;;;;;;30.50;32.13;95770.03;4967922;28;20041;-66
2021/08/11 08:33:42;;;;;;;2.40;2.20;;;;;;;30.58;31.79;95770.72;4971252;28;20027;-65
2021/08/11 08:36:09;;;;;;;2.88;1.92;;;;;;;30.26;32.35;95780.28;4968293;28;20047;-66
2021/08/11 08:38:34;;;;;;;4.03;2.20;;;;;;;30.65;31.72;95767.84;4969153;28;20129;-68
2021/08/11 08:41:00;;;;;;;2.25;2.05;;;;;;;30.74;31.82;95765.34;4968855;28;20118;-68
2021/08/11 08:43:26;;;;;;;2.22;2.03;;;;;;;30.92;31.53;95776.03;4969307;28;20043;-64
2021/08/11 08:45:52;;;;;;;3.03;2.60;;;;;;;31.09;31.52;95776.88;4970489;28;20158;-63
2021/08/11 08:48:17;;;;;;;5.57;2.55;;;;;;;31.20;31.26;95783.72;4969232;28;20134;-64
2021/08/11 08:50:47;;;;;;;2.50;2.30;;;;;;;31.33;30.88;95774.88;4967374;28;20053;-64
2021/08/11 08:53:13;;;;;;;2.78;2.08;;;;;;;31.37;30.58;95764.56;4969012;28;20031;-64
2021/08/11 08:55:40;;;;;;;3.30;2.22;;;;;;;31.34;29.84;95768.94;4972139;28;20042;-63
2021/08/11 08:58:06;;;;;;;2.25;2.05;;;;;;;30.58;30.39;95774.22;4972537;28;20033;-63
2021/08/11 09:00:34;;;;;;;2.25;2.05;;;;;;;31.15;30.30;95766.94;4974542;28;20026;-63
2021/08/11 09:03:00;;;;;;;3.03;2.30;;;;;;;31.26;30.97;95748.28;4972765;28;20122;-68
2021/08/11 09:05:26;;;;;;;2.40;2.20;;;;;;;31.54;30.63;95775.19;4970704;28;20129;-66
2021/08/11 09:07:52;;;;;;;3.97;2.70;;;;;;;31.37;30.30;95754.34;4972101;28;20043;-68
2021/08/11 09:10:22;;;;;;;8.13;2.55;;;;;;;31.50;31.17;95770.97;4971094;28;20038;-69
2021/08/11 09:12:49;;;;;;;3.60;2.35;;;;;;;31.56;30.91;95767.28;4974420;28;20027;-70
2021/08/11 09:15:28;;;;;;;3.10;2.80;;;;;;;31.24;31.00;95764.41;4972169;28;20430;-70
2021/08/11 09:17:56;;;;;;;3.55;3.00;;;;;;;31.20;29.56;95763.69;4970839;28;20050;-72
2021/08/11 09:20:26;;;;;;;3.00;2.80;;;;;;;31.22;29.66;95723.63;4971887;28;20186;-71
2021/08/11 09:22:55;;;;;;;3.55;3.13;;;;;;;31.63;30.13;95757.31;4972230;28;20501;-71
2021/08/11 09:25:21;;;;;;;3.20;2.90;;;;;;;31.77;29.92;95768.03;4972032;28;20114;-70
2021/08/11 09:27:48;;;;;;;3.35;2.92;;;;;;;31.67;29.22;95769.78;4973710;28;20034;-71
2021/08/11 09:30:15;;;;;;;3.03;2.65;;;;;;;31.67;29.35;95764.28;4972259;28;20042;-70
2021/08/11 09:32:48;;;;;;;3.13;2.88;;;;;;;31.88;30.17;95759.56;4972231;28;20057;-70
2021/08/11 09:35:15;;;;;;;3.55;3.17;;;;;;;31.90;30.09;95763.44;4972097;28;20493;-71
2021/08/11 09:37:44;;;;;;;3.30;3.00;;;;;;;31.79;30.52;95743.63;4971454;28;20039;-68
2021/08/11 09:40:19;;;;;;;4.75;3.42;;;;;;;31.94;30.49;95738.56;4987875;28;20034;-68
2021/08/11 09:42:45;;;;;;;7.65;3.80;;;;;;;32.17;30.45;95746.69;4993297;28;20282;-67
2021/08/11 09:45:12;;;;;;;3.60;3.30;;;;;;;31.50;29.90;95760.75;4989760;28;20042;-67
2021/08/11 09:47:51;;;;;;;3.80;3.50;;;;;;;30.64;30.33;95719.59;4990421;28;20046;-68
2021/08/11 09:50:16;;;;;;;3.70;3.40;;;;;;;29.05;33.51;95766.19;4991314;28;20050;-68
2021/08/11 09:52:50;;;;;;;3.15;2.95;;;;;;;29.85;31.92;95761.28;4971276;28;20559;-68
2021/08/11 09:55:16;;;;;;;3.40;3.20;;;;;;;30.75;31.56;95755.91;4970391;28;20034;-68
2021/08/11 09:57:43;;;;;;;3.65;3.35;;;;;;;31.23;31.43;95746.38;4973171;28;20031;-68
2021/08/11 10:00:13;;;;;;;5.32;3.53;;;;;;;31.61;31.23;95743.25;4971740;28;20496;-69
2021/08/11 10:02:38;;;;;;;3.78;3.22;;;;;;;31.63;29.52;95749.84;4971589;28;20186;-69
2021/08/11 10:05:04;;;;;;;3.40;3.10;;;;;;;32.10;29.69;95755.13;4970856;28;20118;-69
2021/08/11 10:07:29;;;;;;;3.63;3.33;;;;;;;31.86;29.55;95737.97;4969755;28;20058;-69
2021/08/11 10:10:04;;;;;;;6.45;3.30;;;;;;;32.01;29.70;95750.19;4971831;28;20073;-68
2021/08/11 10:12:32;;;;;;;3.72;3.38;;;;;;;32.26;29.80;95755.13;4971494;28;20042;-67
2021/08/11 10:14:59;;;;;;;3.55;3.25;;;;;;;30.35;31.42;95744.81;4971087;28;20525;-67
2021/08/11 10:17:34;;;;;;;4.30;3.45;;;;;;;30.08;32.58;95744.06;4970755;28;20548;-67
2021/08/11 10:20:04;;;;;;;3.60;3.30;;;;;;;31.68;31.12;95751.31;4970820;28;20397;-67
2021/08/11 10:22:30;;;;;;;4.13;3.80;;;;;;;31.28;31.60;95735.69;4970608;28;20050;-67
2021/08/11 10:24:57;;;;;;;5.40;2.83;;;;;;;31.61;31.23;95737.75;4987261;28;20469;-68
2021/08/11 10:27:23;;;;;;;3.35;3.05;;;;;;;32.41;30.30;95741.81;4990047;28;20412;-67
2021/08/11 10:29:50;;;;;;;3.35;3.10;;;;;;;32.43;30.16;95705.56;4989144;28;20165;-67
2021/08/11 10:32:16;;;;;;;4.40;3.15;;;;;;;32.85;29.39;95744.97;4989065;28;20038;-67
2021/08/11 10:34:43;;;;;;;5.90;3.60;;;;;;;30.98;30.78;95731.16;4990229;28;20030;-67
2021/08/11 10:37:11;;;;;;;3.42;3.13;;;;;;;32.40;29.57;95733.94;4976331;28;20503;-68
2021/08/11 10:39:39;;;;;;;4.55;3.47;;;;;;;32.83;29.40;95714.34;4965068;28;20042;-67
2021/08/11 10:42:13;;;;;;;3.63;3.20;;;;;;;33.30;29.04;95742.16;4970589;28;20138;-67
2021/08/11 10:44:39;;;;;;;4.40;3.38;;;;;;;33.43;28.04;95742.25;4970656;28;20038;-67
2021/08/11 10:47:07;;;;;;;3.92;3.53;;;;;;;33.34;28.77;95742.06;4968923;28;20517;-68
2021/08/11 10:49:51;;;;;;;3.63;3.40;;;;;;;33.61;28.32;95747.97;4970556;28;20034;-67
2021/08/11 10:52:16;;;;;;;3.80;3.50;;;;;;;33.43;27.94;95711.13;4969993;28;20039;-67
2021/08/11 10:54:51;;;;;;;3.42;3.00;;;;;;;32.89;28.99;95739.38;4972257;28;20034;-67
2021/08/11 10:57:40;;;;;;;3.40;3.10;;;;;;;33.69;28.59;95729.25;4969950;28;20109;-67
2021/08/11 11:00:07;;;;;;;4.45;3.38;;;;;;;34.32;28.47;95736.72;4969784;28;20038;-68
2021/08/11 11:02:42;;;;;;;4.90;3.22;;;;;;;34.43;27.57;95741.88;4970333;28;20043;-68
2021/08/11 11:05:08;;;;;;;3.33;3.10;;;;;;;34.44;27.38;95726.84;4970349;28;20121;-68
2021/08/11 11:07:34;;;;;;;4.05;3.65;;;;;;;35.00;26.98;95733.66;4969187;28;20121;-68
2021/08/11 11:10:23;;;;;;;3.92;3.20;;;;;;;35.26;26.71;95737.84;4985623;28;20038;-68
2021/08/11 11:12:49;;;;;;;3.97;3.65;;;;;;;35.17;26.34;95732.28;4988810;28;20223;-68
2021/08/11 11:15:14;;;;;;;3.53;3.22;;;;;;;34.48;26.77;95718.47;4989734;28;20611;-68
2021/08/11 11:18:08;;;;;;;4.88;3.30;;;;;;;34.97;26.66;95724.28;4987580;28;20113;-68
2021/08/11 11:20:34;;;;;;;3.97;3.58;;;;;;;35.16;26.38;95722.41;4987713;28;20042;-68
2021/08/11 11:23:00;;;;;;;5.32;3.65;;;;;;;35.12;25.94;95730.09;4970509;28;20405;-68
2021/08/11 11:25:58;;;;;;;5.80;3.40;;;;;;;35.55;25.58;95726.50;4988156;28;20045;-68
2021/08/11 11:28:52;;;;;;;4.15;3.78;;;;;;;35.38;24.96;95734.25;4989203;28;20472;-68
2021/08/11 11:31:41;;;;;;;3.47;3.17;;;;;;;35.94;25.36;95732.56;4989024;28;20026;-68
2021/08/11 11:34:36;;;;;;;7.82;3.50;;;;;;;32.66;28.67;95729.34;4989269;28;20027;-69
2021/08/11 11:37:17;;;;;;;4.50;3.72;;;;;;;32.06;30.02;95735.94;4980380;28;20054;-68